Terminal Aerodrome Forecast
Issued by NWS

Home | Current Version | Previous Version | Text Only | Print | Product List | Glossary On
Versions: 1 2 3 4 5 6 7 8 9 10 11 12 13 14 15 16 17 18 19 20 21 22 23 24 25 26 27 28 29 30 31 32
000
FTUS41 KBOX 030608 AAA
TAFBAF
TAF AMD
KBAF 030608Z 0306/0406 31010KT P6SM FEW250
     FM031900 18004KT P6SM BKN120
     FM032300 18008KT 1/2SM SN OVC020
     FM040300 19008KT 1/2SM SNPL OVC010
     FM040500 20009KT 6SM -FZRAPL OVC008=

USA.gov is the U.S. government's official web portal to all federal, state and local government web resources and services.